Time;durP1;ratioP1;P1;durP2;ratioP2;P2;SDS_P1;SDS_P2;PMS_P1;PMS_P2;Temp;Humidity;BMP_temperature;BMP_pressure;BME280_temperature;BME280_humidity;BME280_pressure;Samples;Min_cycle;Max_cycle;Signal;HPM_P1;HPM_P2
2022/10/07 00:00:24;;;;;;;4.53;2.30;;;8.90;81.10;;;;;;932606;149;27410;-75
2022/10/07 00:02:50;;;;;;;2.93;2.13;;;8.80;81.20;;;;;;931103;149;27346;-76
2022/10/07 00:05:17;;;;;;;3.87;2.63;;;8.80;81.30;;;;;;930360;149;27479;-74
2022/10/07 00:07:44;;;;;;;5.97;2.90;;;8.80;81.40;;;;;;930988;150;27519;-75
2022/10/07 00:10:10;;;;;;;4.07;2.43;;;8.80;81.70;;;;;;930488;149;27358;-74
2022/10/07 00:12:37;;;;;;;3.30;2.50;;;8.70;81.70;;;;;;931981;150;27421;-75
2022/10/07 00:15:04;;;;;;;4.10;2.23;;;8.70;81.70;;;;;;930147;149;27415;-77
2022/10/07 00:17:30;;;;;;;3.67;2.20;;;8.70;81.90;;;;;;914139;151;27395;-75
2022/10/07 00:19:56;;;;;;;3.70;2.77;;;8.70;82.00;;;;;;916452;151;27335;-74
2022/10/07 00:22:23;;;;;;;2.73;2.20;;;8.60;82.00;;;;;;915189;151;27313;-74
2022/10/07 00:24:50;;;;;;;4.60;2.37;;;8.60;82.10;;;;;;916982;151;27895;-75
2022/10/07 00:27:16;;;;;;;2.53;2.20;;;8.60;82.20;;;;;;916649;151;27395;-76
2022/10/07 00:29:43;;;;;;;4.40;2.20;;;8.60;82.40;;;;;;916628;151;27440;-74
2022/10/07 00:32:09;;;;;;;2.07;1.70;;;8.50;82.40;;;;;;919465;151;27376;-74
2022/10/07 00:34:36;;;;;;;5.37;2.00;;;8.50;82.60;;;;;;914709;152;27453;-75
2022/10/07 00:37:03;;;;;;;2.07;1.87;;;8.50;82.70;;;;;;921120;150;27412;-74
2022/10/07 00:39:29;;;;;;;5.53;2.20;;;8.50;82.80;;;;;;934587;148;27794;-76
2022/10/07 00:41:56;;;;;;;4.23;2.10;;;8.40;82.70;;;;;;932747;149;27464;-76
2022/10/07 00:44:32;;;;;;;5.30;2.20;;;8.40;82.90;;;;;;933819;149;27419;-74
2022/10/07 00:49:28;;;;;;;4.27;2.10;;;8.40;83.10;;;;;;972404;145;36671;-76
2022/10/07 00:51:52;;;;;;;5.40;2.20;;;8.30;83.40;;;;;;950516;149;27647;-76
2022/10/07 00:54:18;;;;;;;3.53;2.57;;;8.30;83.60;;;;;;951196;149;27273;-76
2022/10/07 00:56:45;;;;;;;3.47;2.13;;;8.20;83.70;;;;;;953079;148;27644;-76
2022/10/07 00:59:11;;;;;;;2.90;1.87;;;8.20;83.90;;;;;;953399;148;27339;-75
2022/10/07 01:01:40;;;;;;;3.80;2.37;;;8.20;84.00;;;;;;952703;149;27443;-75
2022/10/07 01:04:05;;;;;;;3.90;2.27;;;8.20;84.10;;;;;;953518;149;27395;-76
2022/10/07 01:06:31;;;;;;;2.80;2.30;;;8.10;84.40;;;;;;950641;149;27245;-75
2022/10/07 01:08:58;;;;;;;3.40;2.40;;;8.20;84.70;;;;;;952742;148;27411;-75
2022/10/07 01:11:30;;;;;;;2.63;2.10;;;8.10;84.80;;;;;;952963;149;27413;-75
2022/10/07 01:14:06;;;;;;;4.57;2.30;;;8.10;84.90;;;;;;953623;146;27444;-75
2022/10/07 01:16:38;;;;;;;4.67;2.13;;;8.10;85.20;;;;;;950813;148;27298;-75
2022/10/07 01:19:20;;;;;;;2.13;1.97;;;8.10;85.20;;;;;;953054;146;27295;-76
2022/10/07 01:21:56;;;;;;;2.80;2.37;;;8.10;85.10;;;;;;953845;149;27330;-77
2022/10/07 01:24:49;;;;;;;2.53;2.17;;;8.10;85.30;;;;;;951414;148;27338;-75
2022/10/07 01:27:18;;;;;;;2.43;2.10;;;8.00;85.70;;;;;;939999;151;27428;-75
2022/10/07 01:29:54;;;;;;;2.47;1.90;;;8.10;85.60;;;;;;938711;151;27334;-75
2022/10/07 01:32:19;;;;;;;2.47;1.97;;;8.00;85.80;;;;;;944684;148;27345;-75
2022/10/07 01:34:46;;;;;;;2.37;2.17;;;8.00;86.00;;;;;;952286;149;27318;-75
2022/10/07 01:37:13;;;;;;;3.93;2.67;;;8.00;86.00;;;;;;953868;148;27342;-75
2022/10/07 01:39:39;;;;;;;2.20;2.00;;;8.00;86.10;;;;;;951568;149;27331;-75
2022/10/07 01:42:06;;;;;;;6.47;2.33;;;8.00;86.30;;;;;;951808;148;27349;-76
2022/10/07 01:44:32;;;;;;;2.97;2.03;;;8.00;86.30;;;;;;944504;147;28252;-75
2022/10/07 01:46:59;;;;;;;2.73;2.27;;;8.00;86.40;;;;;;938152;148;27360;-75
2022/10/07 01:49:25;;;;;;;2.87;2.07;;;7.90;86.40;;;;;;932163;149;27349;-75
2022/10/07 01:51:58;;;;;;;4.37;2.37;;;7.90;86.60;;;;;;930253;152;27325;-75
2022/10/07 01:54:27;;;;;;;3.63;2.43;;;7.90;86.90;;;;;;927433;149;27372;-76
2022/10/07 01:56:56;;;;;;;3.03;2.13;;;7.80;87.10;;;;;;929899;152;27388;-75
2022/10/07 01:59:26;;;;;;;3.23;2.30;;;7.90;87.20;;;;;;931648;149;27317;-75
2022/10/07 02:02:02;;;;;;;5.53;2.50;;;7.80;87.40;;;;;;930603;149;27899;-75
2022/10/07 02:04:49;;;;;;;3.27;2.10;;;7.80;87.50;;;;;;931399;151;27452;-76
2022/10/07 02:07:18;;;;;;;3.03;2.33;;;7.80;87.80;;;;;;930956;151;27365;-78
2022/10/07 02:10:06;;;;;;;5.20;1.97;;;7.80;87.80;;;;;;917124;152;27784;-78
2022/10/07 02:12:39;;;;;;;3.47;1.83;;;7.80;88.30;;;;;;929660;149;27801;-75
2022/10/07 02:15:09;;;;;;;3.23;2.17;;;7.90;88.20;;;;;;929709;149;27847;-75
2022/10/07 02:17:36;;;;;;;2.47;2.27;;;7.80;88.50;;;;;;929493;151;27392;-76
2022/10/07 02:20:01;;;;;;;7.37;2.30;;;7.90;88.70;;;;;;931793;151;27358;-77
2022/10/07 02:22:28;;;;;;;4.50;2.60;;;7.90;89.20;;;;;;930374;151;27353;-76
2022/10/07 02:24:57;;;;;;;1.97;1.77;;;7.90;89.50;;;;;;928761;149;27329;-76
2022/10/07 02:27:21;;;;;;;3.77;2.47;;;8.00;89.70;;;;;;929924;152;27395;-75
2022/10/07 02:29:48;;;;;;;3.57;2.20;;;8.00;89.90;;;;;;930687;152;27338;-77
2022/10/07 02:32:14;;;;;;;2.20;2.00;;;8.10;89.90;;;;;;931454;151;27305;-76
2022/10/07 02:34:42;;;;;;;4.60;2.40;;;8.10;90.00;;;;;;929000;149;27352;-76
2022/10/07 02:37:08;;;;;;;3.77;2.17;;;8.10;90.00;;;;;;930313;151;28322;-77
2022/10/07 02:39:34;;;;;;;2.70;2.10;;;8.20;90.00;;;;;;929920;151;27302;-76
2022/10/07 02:42:02;;;;;;;3.30;2.10;;;8.20;90.00;;;;;;929211;151;27316;-75
2022/10/07 02:44:27;;;;;;;3.53;2.53;;;8.20;89.90;;;;;;922191;150;27383;-77
2022/10/07 02:46:54;;;;;;;4.23;2.13;;;8.20;89.70;;;;;;933649;148;27351;-75
2022/10/07 02:49:22;;;;;;;2.47;2.17;;;8.20;89.60;;;;;;926097;149;28654;-75
2022/10/07 02:51:47;;;;;;;2.87;2.27;;;8.10;88.80;;;;;;938296;151;27350;-77
2022/10/07 02:54:14;;;;;;;2.13;1.93;;;8.10;89.80;;;;;;935636;151;27325;-75
2022/10/07 02:56:40;;;;;;;3.63;2.13;;;8.10;90.00;;;;;;920766;150;27336;-77
2022/10/07 02:59:07;;;;;;;2.30;2.00;;;8.10;90.10;;;;;;935347;151;27446;-75
2022/10/07 03:01:33;;;;;;;4.20;1.70;;;8.10;90.20;;;;;;934978;151;27527;-75
2022/10/07 03:04:00;;;;;;;2.20;2.00;;;8.10;90.30;;;;;;933444;152;27324;-75
2022/10/07 03:06:28;;;;;;;2.43;1.73;;;8.10;90.30;;;;;;932933;152;27824;-75
2022/10/07 03:08:55;;;;;;;3.83;2.43;;;8.10;90.30;;;;;;931816;152;27343;-76
2022/10/07 03:11:20;;;;;;;2.20;2.00;;;8.10;90.30;;;;;;931631;152;27391;-77
2022/10/07 03:13:46;;;;;;;2.57;2.10;;;8.10;90.30;;;;;;931677;150;27466;-75
2022/10/07 03:16:13;;;;;;;4.90;2.33;;;8.10;90.50;;;;;;930897;152;27407;-75
2022/10/07 03:18:40;;;;;;;3.53;2.10;;;8.10;90.60;;;;;;932270;152;27340;-76
2022/10/07 03:21:07;;;;;;;2.77;2.27;;;8.10;90.80;;;;;;932386;151;27394;-76
2022/10/07 03:23:33;;;;;;;3.90;2.20;;;8.10;90.80;;;;;;932932;152;27865;-77
2022/10/07 03:25:59;;;;;;;3.03;2.30;;;8.10;91.00;;;;;;932731;149;27361;-76
2022/10/07 03:28:26;;;;;;;3.97;2.40;;;8.10;91.00;;;;;;932626;152;27893;-76
2022/10/07 03:30:53;;;;;;;5.40;2.10;;;8.10;91.20;;;;;;933056;152;27341;-76
2022/10/07 03:33:20;;;;;;;3.73;2.17;;;8.20;91.50;;;;;;930925;152;27378;-76
2022/10/07 03:35:46;;;;;;;5.63;2.10;;;8.20;91.60;;;;;;938495;148;27780;-75
2022/10/07 03:38:12;;;;;;;3.47;1.93;;;8.20;91.80;;;;;;929402;153;27377;-76
2022/10/07 03:40:39;;;;;;;1.73;1.60;;;8.20;92.00;;;;;;937450;149;27780;-76
2022/10/07 03:43:06;;;;;;;5.23;2.23;;;8.30;92.20;;;;;;939779;151;27490;-76
2022/10/07 03:45:34;;;;;;;4.07;2.67;;;8.30;92.50;;;;;;920923;154;27715;-77
2022/10/07 03:47:59;;;;;;;3.40;2.20;;;8.40;92.60;;;;;;938517;151;27427;-75
2022/10/07 03:50:25;;;;;;;4.07;2.50;;;8.40;92.80;;;;;;917333;151;27772;-77
2022/10/07 03:52:52;;;;;;;5.20;2.40;;;8.50;93.00;;;;;;933236;148;27881;-76
2022/10/07 03:55:18;;;;;;;3.47;2.33;;;8.60;93.30;;;;;;918417;151;28434;-76
2022/10/07 03:57:52;;;;;;;2.43;2.23;;;8.60;93.50;;;;;;935268;148;27337;-75
2022/10/07 04:00:19;;;;;;;3.00;2.10;;;8.70;93.70;;;;;;928729;150;27380;-76
2022/10/07 04:02:44;;;;;;;3.07;2.20;;;8.80;93.60;;;;;;927179;150;27872;-78
2022/10/07 04:05:11;;;;;;;3.77;2.50;;;8.90;93.50;;;;;;929072;149;27912;-76
2022/10/07 04:07:37;;;;;;;2.90;2.60;;;8.90;93.20;;;;;;931634;150;27379;-76
2022/10/07 04:10:04;;;;;;;3.43;2.27;;;8.90;92.90;;;;;;930529;150;27423;-76
2022/10/07 04:12:32;;;;;;;6.73;2.37;;;9.00;92.70;;;;;;931145;150;27317;-77
2022/10/07 04:14:57;;;;;;;2.03;1.83;;;8.90;92.40;;;;;;928503;149;27831;-75
2022/10/07 04:17:24;;;;;;;3.93;2.20;;;9.00;92.20;;;;;;930058;150;27358;-76
2022/10/07 04:19:50;;;;;;;5.30;2.77;;;8.90;92.10;;;;;;928800;150;27472;-75
2022/10/07 04:22:17;;;;;;;3.17;2.47;;;8.90;92.00;;;;;;920386;150;27930;-75
2022/10/07 04:25:32;;;;;;;3.10;2.30;;;8.80;92.00;;;;;;935649;148;27383;-74
2022/10/07 04:27:10;;;;;;;3.50;2.30;;;8.80;92.20;;;;;;914618;151;27419;-75
2022/10/07 04:29:36;;;;;;;3.43;2.27;;;8.70;92.30;;;;;;935186;148;27360;-75
2022/10/07 04:32:03;;;;;;;3.33;2.10;;;8.70;92.50;;;;;;933784;149;27479;-76
2022/10/07 04:34:30;;;;;;;3.50;1.97;;;8.70;92.70;;;;;;931833;149;27344;-74
2022/10/07 04:36:59;;;;;;;4.27;2.23;;;8.70;92.60;;;;;;932874;149;27444;-74
2022/10/07 04:39:24;;;;;;;3.37;2.03;;;8.70;92.50;;;;;;931611;149;27293;-75
2022/10/07 04:41:50;;;;;;;3.93;2.03;;;8.70;92.80;;;;;;933077;149;27474;-76
2022/10/07 04:44:16;;;;;;;2.97;2.20;;;8.70;92.60;;;;;;931982;149;27490;-75
2022/10/07 04:46:43;;;;;;;4.10;2.37;;;8.60;92.70;;;;;;932360;149;27342;-76
2022/10/07 04:49:09;;;;;;;3.87;2.20;;;8.60;92.90;;;;;;931098;149;27793;-75
2022/10/07 04:51:36;;;;;;;4.80;2.50;;;8.60;92.90;;;;;;933923;149;27986;-74
2022/10/07 04:54:02;;;;;;;2.97;2.50;;;8.60;92.90;;;;;;931431;149;27419;-75
2022/10/07 04:56:30;;;;;;;2.47;2.27;;;8.60;92.50;;;;;;931082;149;27373;-74
2022/10/07 04:58:55;;;;;;;4.70;2.60;;;8.60;93.00;;;;;;933906;149;27441;-74
2022/10/07 05:01:22;;;;;;;5.00;2.60;;;8.50;93.10;;;;;;934115;149;27433;-75
2022/10/07 05:03:49;;;;;;;2.93;2.70;;;8.50;93.30;;;;;;933583;149;27363;-75
2022/10/07 05:06:15;;;;;;;5.87;2.67;;;8.60;93.60;;;;;;933107;149;27267;-75
2022/10/07 05:08:43;;;;;;;4.97;3.00;;;8.60;93.80;;;;;;916216;151;27469;-76
2022/10/07 05:11:08;;;;;;;2.80;2.43;;;8.60;93.90;;;;;;935798;148;27359;-77
2022/10/07 05:13:36;;;;;;;4.40;2.67;;;8.60;93.70;;;;;;933693;149;27425;-77
2022/10/07 05:16:02;;;;;;;6.67;2.57;;;8.70;93.90;;;;;;932494;149;27370;-77
2022/10/07 05:18:28;;;;;;;5.37;2.37;;;8.70;93.90;;;;;;931359;149;27318;-75
2022/10/07 05:20:55;;;;;;;3.57;2.53;;;8.80;93.90;;;;;;932592;149;27433;-77
2022/10/07 05:23:21;;;;;;;7.83;2.67;;;8.80;93.90;;;;;;931339;149;27369;-75
2022/10/07 05:25:48;;;;;;;3.07;2.23;;;8.80;93.80;;;;;;933553;149;27420;-76
2022/10/07 05:28:15;;;;;;;2.93;2.60;;;8.90;93.70;;;;;;931160;149;27313;-75
2022/10/07 05:30:41;;;;;;;4.20;2.80;;;8.90;93.70;;;;;;931961;149;27372;-76
2022/10/07 05:33:08;;;;;;;5.87;3.00;;;8.90;93.70;;;;;;932208;149;27354;-76
2022/10/07 05:35:34;;;;;;;3.43;2.40;;;8.90;93.80;;;;;;932404;149;27382;-75
2022/10/07 05:38:01;;;;;;;3.30;2.70;;;9.00;93.80;;;;;;931323;149;27521;-75
2022/10/07 05:40:27;;;;;;;4.47;3.07;;;9.00;93.80;;;;;;932678;149;27337;-76
2022/10/07 05:42:54;;;;;;;3.03;2.40;;;9.00;93.70;;;;;;932266;149;27348;-74
2022/10/07 05:45:21;;;;;;;3.20;2.43;;;9.00;93.70;;;;;;933297;149;27399;-75
2022/10/07 05:47:47;;;;;;;3.63;2.70;;;9.00;93.80;;;;;;934647;149;27439;-77
2022/10/07 05:50:14;;;;;;;2.97;2.33;;;9.10;93.90;;;;;;932825;149;27417;-75
2022/10/07 05:52:44;;;;;;;3.97;2.70;;;9.10;93.90;;;;;;935311;151;27358;-75
2022/10/07 05:55:07;;;;;;;3.40;2.77;;;9.10;93.80;;;;;;921154;154;27412;-75
2022/10/07 05:57:33;;;;;;;3.23;2.57;;;9.10;93.70;;;;;;938323;148;27333;-75
2022/10/07 06:00:02;;;;;;;5.13;2.60;;;9.10;93.60;;;;;;932816;151;27447;-76
2022/10/07 06:02:28;;;;;;;3.80;3.50;;;9.10;93.60;;;;;;931363;151;27386;-75
2022/10/07 06:04:53;;;;;;;5.83;2.63;;;9.10;93.70;;;;;;932227;152;27280;-76
2022/10/07 06:07:20;;;;;;;7.43;3.17;;;9.10;93.90;;;;;;931076;152;27352;-75
2022/10/07 06:15:16;;;;;;;3.23;2.77;;;9.20;94.30;;;;;;934072;152;27436;-76
2022/10/07 06:17:42;;;;;;;6.13;3.40;;;9.30;94.80;;;;;;931216;152;27379;-76
2022/10/07 06:20:09;;;;;;;7.37;3.30;;;9.40;95.60;;;;;;932241;152;27474;-77
2022/10/07 06:22:35;;;;;;;6.13;2.80;;;9.50;96.40;;;;;;940513;151;27330;-76
2022/10/07 06:25:02;;;;;;;3.23;2.93;;;9.70;97.00;;;;;;937599;148;27355;-76
2022/10/07 06:27:29;;;;;;;4.97;3.37;;;10.00;97.70;;;;;;932270;152;27357;-77
2022/10/07 06:29:55;;;;;;;4.03;3.63;;;10.20;98.10;;;;;;933159;149;27397;-76
2022/10/07 06:32:22;;;;;;;6.93;2.83;;;10.50;98.00;;;;;;931262;152;27483;-76
2022/10/07 06:34:48;;;;;;;4.90;4.17;;;10.90;97.60;;;;;;932363;149;27362;-76
2022/10/07 06:37:15;;;;;;;5.57;3.83;;;11.20;96.70;;;;;;931841;152;28179;-76
2022/10/07 06:39:42;;;;;;;5.83;3.37;;;11.40;96.40;;;;;;931293;152;27830;-77
2022/10/07 06:42:08;;;;;;;4.40;2.87;;;11.70;96.30;;;;;;932187;152;27386;-76
2022/10/07 06:44:35;;;;;;;5.37;3.63;;;12.00;96.10;;;;;;932355;149;27405;-76
2022/10/07 06:47:01;;;;;;;7.27;3.20;;;12.30;95.40;;;;;;932036;152;27415;-76
2022/10/07 06:49:29;;;;;;;4.63;3.13;;;12.60;94.70;;;;;;932259;149;27314;-76
2022/10/07 06:51:54;;;;;;;3.53;3.23;;;12.90;95.20;;;;;;929378;150;27395;-78
2022/10/07 06:54:21;;;;;;;6.00;3.60;;;13.30;95.60;;;;;;928709;150;27383;-76
2022/10/07 06:56:48;;;;;;;4.97;3.60;;;13.70;96.30;;;;;;928685;150;27485;-76
2022/10/07 06:59:14;;;;;;;3.73;2.80;;;14.30;96.70;;;;;;928055;150;27376;-75
2022/10/07 07:01:41;;;;;;;6.47;3.62;;;14.90;96.80;;;;;;928454;150;27387;-76
2022/10/07 07:04:07;;;;;;;5.83;4.10;;;15.50;94.40;;;;;;930026;150;27333;-75
2022/10/07 07:06:37;;;;;;;4.42;3.42;;;16.10;92.20;;;;;;930159;149;27439;-77
2022/10/07 07:09:04;;;;;;;5.72;3.80;;;16.50;90.10;;;;;;929991;150;27382;-75
2022/10/07 07:11:36;;;;;;;5.15;4.53;;;17.00;88.10;;;;;;928372;150;27334;-76
2022/10/07 07:14:05;;;;;;;5.95;4.50;;;17.50;87.80;;;;;;928292;150;27433;-76
2022/10/07 07:16:32;;;;;;;7.40;4.25;;;18.10;88.40;;;;;;929926;149;27359;-76
2022/10/07 07:19:00;;;;;;;4.92;3.58;;;18.70;86.50;;;;;;929615;150;27405;-75
2022/10/07 07:21:27;;;;;;;3.27;2.75;;;19.30;83.40;;;;;;930471;150;27451;-75
2022/10/07 07:23:52;;;;;;;5.47;3.83;;;19.80;80.60;;;;;;928685;150;27371;-75
2022/10/07 07:26:19;;;;;;;2.75;2.55;;;20.30;77.50;;;;;;930412;149;27312;-76
2022/10/07 07:28:45;;;;;;;2.52;2.20;;;20.80;75.20;;;;;;930967;150;27404;-76
2022/10/07 07:31:12;;;;;;;3.55;2.58;;;21.10;73.70;;;;;;927636;150;27391;-78
2022/10/07 07:33:38;;;;;;;2.70;2.50;;;21.50;71.40;;;;;;929960;150;27430;-76
2022/10/07 07:38:40;;;;;;;3.15;2.45;;;21.90;70.40;;;;;;976679;145;38009;-76
2022/10/07 07:41:06;;;;;;;4.28;2.33;;;22.70;68.50;;;;;;964153;146;27433;-76
2022/10/07 07:43:33;;;;;;;3.37;2.30;;;23.10;67.90;;;;;;962138;146;27311;-76
2022/10/07 07:46:00;;;;;;;3.25;2.40;;;23.70;67.10;;;;;;952325;146;28357;-75
2022/10/07 07:48:26;;;;;;;2.58;2.00;;;24.10;65.70;;;;;;951052;146;27697;-75
2022/10/07 07:50:53;;;;;;;4.22;1.92;;;24.60;64.50;;;;;;950895;149;27329;-75
2022/10/07 07:53:21;;;;;;;3.95;2.80;;;25.00;63.40;;;;;;949643;149;27375;-75
2022/10/07 07:55:52;;;;;;;3.65;2.47;;;25.40;62.10;;;;;;948511;148;27446;-75
2022/10/07 07:58:20;;;;;;;3.67;2.40;;;25.80;61.30;;;;;;951336;148;27871;-75
2022/10/07 08:00:45;;;;;;;5.30;2.77;;;26.10;59.50;;;;;;949561;149;27379;-75
2022/10/07 08:03:12;;;;;;;3.87;2.33;;;26.40;58.60;;;;;;950118;148;27293;-75
2022/10/07 08:05:38;;;;;;;3.90;2.85;;;26.50;58.00;;;;;;950134;146;27321;-77
2022/10/07 08:08:05;;;;;;;2.83;2.12;;;26.70;57.60;;;;;;949590;149;27321;-77
2022/10/07 08:10:32;;;;;;;2.92;2.30;;;27.00;57.50;;;;;;948734;146;27366;-77
2022/10/07 08:12:58;;;;;;;5.35;2.60;;;27.30;57.40;;;;;;949395;149;27447;-75
2022/10/07 08:15:25;;;;;;;3.10;2.15;;;27.60;57.00;;;;;;949458;149;27317;-74
2022/10/07 08:17:52;;;;;;;1.85;1.75;;;28.00;56.80;;;;;;948136;148;27328;-75
2022/10/07 08:20:18;;;;;;;3.15;2.05;;;28.40;56.50;;;;;;949062;149;27289;-75
2022/10/07 08:22:45;;;;;;;2.83;1.90;;;28.90;55.90;;;;;;951786;149;27352;-76
2022/10/07 08:25:11;;;;;;;3.10;1.70;;;29.20;55.10;;;;;;949179;149;27417;-75
2022/10/07 08:27:38;;;;;;;3.92;1.90;;;29.60;54.40;;;;;;951605;146;27321;-75
2022/10/07 08:30:06;;;;;;;3.37;1.80;;;29.90;53.80;;;;;;952105;149;27269;-75
2022/10/07 08:32:31;;;;;;;2.72;1.80;;;30.20;53.40;;;;;;951330;149;27326;-74
2022/10/07 08:34:57;;;;;;;3.92;2.05;;;30.50;53.00;;;;;;950135;146;27433;-76
2022/10/07 08:37:24;;;;;;;2.85;2.30;;;30.80;52.40;;;;;;948581;149;27412;-75
2022/10/07 08:39:51;;;;;;;3.25;2.15;;;31.10;51.80;;;;;;943399;149;27433;-75
2022/10/07 08:42:23;;;;;;;2.70;1.77;;;31.30;51.20;;;;;;943719;147;27305;-76
2022/10/07 08:44:49;;;;;;;2.33;2.10;;;31.50;50.60;;;;;;943339;147;27983;-75
2022/10/07 08:47:16;;;;;;;3.17;2.40;;;31.70;50.20;;;;;;944108;147;27382;-75
2022/10/07 08:49:59;;;;;;;3.40;2.00;;;31.90;49.90;;;;;;943706;147;27341;-75
2022/10/07 08:52:39;;;;;;;2.75;1.80;;;32.20;49.00;;;;;;900442;152;27480;-75
2022/10/07 08:55:14;;;;;;;3.67;2.02;;;32.30;49.10;;;;;;921274;150;27293;-75
2022/10/07 08:57:57;;;;;;;3.92;1.90;;;32.50;48.60;;;;;;938258;146;27353;-75
2022/10/07 09:00:23;;;;;;;2.85;2.05;;;32.40;48.00;;;;;;934350;149;28365;-75
2022/10/07 09:03:05;;;;;;;3.22;2.27;;;32.50;47.70;;;;;;922948;150;27419;-75
2022/10/07 09:05:27;;;;;;;4.03;2.20;;;32.40;47.20;;;;;;902944;150;26319;-76
2022/10/07 09:07:54;;;;;;;4.47;2.50;;;32.30;46.70;;;;;;939836;147;27446;-76
2022/10/07 09:10:26;;;;;;;3.45;2.65;;;32.20;46.60;;;;;;942339;147;27990;-75
2022/10/07 09:13:02;;;;;;;3.55;2.22;;;32.10;46.50;;;;;;942362;147;27325;-75
2022/10/07 09:15:37;;;;;;;4.67;2.50;;;32.00;46.20;;;;;;941969;147;27414;-75
2022/10/07 09:18:09;;;;;;;3.10;2.27;;;31.90;45.40;;;;;;925209;149;27347;-76
2022/10/07 09:20:36;;;;;;;6.22;2.95;;;31.70;45.90;;;;;;923360;150;27397;-75
2022/10/07 09:23:02;;;;;;;5.15;2.90;;;31.60;45.90;;;;;;925867;150;27448;-75
2022/10/07 09:25:29;;;;;;;3.75;2.55;;;31.40;45.90;;;;;;923735;150;27815;-75
2022/10/07 09:27:55;;;;;;;6.10;2.72;;;31.30;46.00;;;;;;916342;150;27400;-74
2022/10/07 09:30:22;;;;;;;5.70;2.67;;;31.20;46.00;;;;;;919485;150;27266;-75
2022/10/07 09:32:49;;;;;;;3.67;2.37;;;31.00;45.80;;;;;;938354;147;27735;-76
2022/10/07 09:35:16;;;;;;;4.42;2.50;;;30.90;45.70;;;;;;939820;147;27354;-75
2022/10/07 09:37:53;;;;;;;5.58;2.35;;;30.60;45.60;;;;;;941567;147;27327;-75
2022/10/07 09:40:35;;;;;;;6.05;2.22;;;30.40;45.50;;;;;;943817;147;27399;-76
2022/10/07 09:43:02;;;;;;;5.83;2.30;;;30.10;45.60;;;;;;942172;147;27391;-76
2022/10/07 09:45:31;;;;;;;2.55;1.95;;;29.90;45.60;;;;;;939117;147;27377;-75
2022/10/07 09:48:05;;;;;;;5.03;1.98;;;29.60;45.70;;;;;;940699;147;27431;-75
2022/10/07 09:50:38;;;;;;;2.50;2.12;;;29.40;45.60;;;;;;939567;147;27337;-75
2022/10/07 09:53:02;;;;;;;1.65;1.40;;;29.10;45.10;;;;;;939860;147;27448;-76
2022/10/07 09:55:41;;;;;;;1.67;1.57;;;28.80;45.00;;;;;;941239;147;27414;-75
2022/10/07 09:58:22;;;;;;;3.02;1.55;;;28.40;44.70;;;;;;938505;147;27347;-75
2022/10/07 10:00:49;;;;;;;2.90;1.57;;;28.10;45.00;;;;;;939769;147;27780;-76
2022/10/07 10:03:15;;;;;;;1.60;1.50;;;27.70;45.20;;;;;;942028;147;27291;-75
2022/10/07 10:05:56;;;;;;;2.80;1.67;;;27.40;45.40;;;;;;942099;147;27318;-75
2022/10/07 10:08:21;;;;;;;2.25;2.00;;;27.10;46.10;;;;;;942020;147;27357;-76
2022/10/07 10:10:56;;;;;;;1.92;1.50;;;26.70;45.70;;;;;;940861;147;27444;-75
2022/10/07 10:13:23;;;;;;;2.08;1.60;;;26.50;45.90;;;;;;940837;147;27335;-75
2022/10/07 10:15:49;;;;;;;4.60;2.00;;;26.20;46.10;;;;;;942796;147;27354;-75
2022/10/07 10:18:28;;;;;;;2.50;1.55;;;26.00;46.40;;;;;;940182;147;27365;-76
2022/10/07 10:20:54;;;;;;;2.30;1.67;;;25.70;46.50;;;;;;938270;147;27340;-75
2022/10/07 10:23:33;;;;;;;1.72;1.32;;;25.50;47.00;;;;;;940494;147;27431;-75
2022/10/07 10:26:27;;;;;;;1.72;1.45;;;25.20;47.20;;;;;;938861;147;27396;-75
2022/10/07 10:29:06;;;;;;;2.83;1.40;;;25.10;47.40;;;;;;940648;147;27291;-75
2022/10/07 10:31:59;;;;;;;3.58;1.40;;;24.90;47.70;;;;;;941407;147;27356;-76
2022/10/07 10:34:33;;;;;;;2.22;1.35;;;24.70;48.00;;;;;;941732;147;27467;-75
2022/10/07 10:37:04;;;;;;;2.98;1.25;;;24.50;47.80;;;;;;942849;147;27337;-75
2022/10/07 10:39:56;;;;;;;3.72;1.52;;;24.40;48.30;;;;;;948223;146;27342;-76
2022/10/07 10:42:21;;;;;;;0.90;0.90;;;24.30;48.40;;;;;;917601;154;27443;-78
2022/10/07 10:45:06;;;;;;;3.17;1.20;;;24.10;48.70;;;;;;941194;146;27377;-75
2022/10/07 10:47:29;;;;;;;1.85;1.30;;;24.00;48.90;;;;;;954859;146;27393;-76
2022/10/07 10:50:00;;;;;;;2.27;1.20;;;23.80;49.20;;;;;;952245;146;27352;-75
2022/10/07 10:52:44;;;;;;;1.47;1.25;;;23.70;49.40;;;;;;952178;146;27316;-75
2022/10/07 10:55:32;;;;;;;2.85;1.30;;;23.60;49.80;;;;;;954284;146;27289;-75
2022/10/07 10:58:10;;;;;;;3.33;1.32;;;23.50;50.20;;;;;;952808;146;27345;-75
2022/10/07 11:00:45;;;;;;;1.32;1.22;;;23.40;50.80;;;;;;953195;146;27310;-75
2022/10/07 11:03:31;;;;;;;2.67;1.30;;;23.40;50.40;;;;;;942648;146;27352;-75
2022/10/07 11:05:57;;;;;;;3.83;1.02;;;23.30;50.60;;;;;;953589;146;27692;-77
2022/10/07 11:08:31;;;;;;;4.53;1.67;;;23.30;50.60;;;;;;954131;145;27623;-77
2022/10/07 11:10:55;;;;;;;3.67;1.30;;;23.30;50.50;;;;;;953748;145;27369;-78
2022/10/07 11:13:37;;;;;;;2.90;1.40;;;23.30;50.60;;;;;;955721;145;27392;-78
2022/10/07 11:16:09;;;;;;;3.05;1.25;;;23.30;50.70;;;;;;954557;145;27337;-77
2022/10/07 11:18:53;;;;;;;2.77;1.25;;;23.20;50.80;;;;;;953444;146;27767;-77
2022/10/07 11:21:20;;;;;;;2.20;1.32;;;23.20;51.00;;;;;;954145;145;27897;-76
2022/10/07 11:23:47;;;;;;;2.05;1.20;;;23.20;51.30;;;;;;949732;145;27272;-77
2022/10/07 11:26:16;;;;;;;3.10;1.82;;;23.20;51.10;;;;;;950094;145;27347;-76
2022/10/07 11:28:43;;;;;;;4.45;1.17;;;23.20;51.30;;;;;;952723;145;27330;-76
2022/10/07 11:31:31;;;;;;;3.67;1.27;;;23.20;51.50;;;;;;953359;145;28599;-77
2022/10/07 11:34:09;;;;;;;3.20;1.32;;;23.20;51.60;;;;;;955269;148;27244;-76
2022/10/07 11:36:39;;;;;;;1.37;1.27;;;23.20;51.50;;;;;;955565;145;27395;-76
2022/10/07 11:39:05;;;;;;;2.33;1.40;;;23.20;51.50;;;;;;935276;148;27378;-77
2022/10/07 11:41:32;;;;;;;1.87;1.37;;;23.20;51.40;;;;;;937876;147;27345;-76
2022/10/07 11:44:01;;;;;;;4.03;1.85;;;23.20;51.40;;;;;;933437;149;28111;-76
2022/10/07 11:46:35;;;;;;;1.57;1.47;;;23.20;51.60;;;;;;932023;149;27277;-76
2022/10/07 11:49:06;;;;;;;2.40;1.35;;;23.20;51.50;;;;;;932339;149;27356;-76
2022/10/07 11:51:45;;;;;;;1.62;1.25;;;23.20;51.50;;;;;;938415;147;27326;-77
2022/10/07 11:56:38;;;;;;;3.37;1.40;;;23.20;51.60;;;;;;972245;145;39019;-76
2022/10/07 11:59:05;;;;;;;2.15;1.10;;;23.20;51.70;;;;;;952066;149;27822;-76
2022/10/07 12:01:35;;;;;;;3.75;1.90;;;23.20;51.70;;;;;;953004;149;27336;-77
2022/10/07 12:04:28;;;;;;;2.87;1.27;;;23.20;51.70;;;;;;951031;147;27347;-76
2022/10/07 12:07:14;;;;;;;3.50;1.17;;;23.20;51.80;;;;;;953495;149;27343;-76
2022/10/07 12:09:53;;;;;;;1.12;1.02;;;23.20;51.60;;;;;;949485;149;27351;-76
2022/10/07 12:12:22;;;;;;;1.45;1.27;;;23.20;51.60;;;;;;951625;149;27990;-76
2022/10/07 12:14:54;;;;;;;2.05;1.60;;;23.20;51.80;;;;;;951986;149;27255;-75
2022/10/07 12:17:20;;;;;;;1.92;1.30;;;23.20;51.80;;;;;;954301;146;27281;-76
2022/10/07 12:19:47;;;;;;;3.35;1.57;;;23.20;51.80;;;;;;953781;147;27352;-77
2022/10/07 12:22:14;;;;;;;1.72;1.25;;;23.20;51.80;;;;;;950903;149;27339;-76
2022/10/07 12:24:40;;;;;;;2.02;1.27;;;23.30;52.00;;;;;;953836;149;27288;-75
2022/10/07 12:27:07;;;;;;;2.60;1.20;;;23.30;51.90;;;;;;952414;149;27419;-76
2022/10/07 12:29:57;;;;;;;1.67;1.17;;;23.40;51.90;;;;;;952584;148;27326;-75
2022/10/07 12:32:52;;;;;;;3.90;1.30;;;23.40;51.90;;;;;;951825;149;27389;-77
2022/10/07 12:35:36;;;;;;;1.82;1.37;;;23.40;52.00;;;;;;953268;147;27308;-78
2022/10/07 12:38:18;;;;;;;3.30;1.20;;;23.50;52.10;;;;;;952367;149;27323;-80
2022/10/07 12:40:48;;;;;;;1.45;0.95;;;23.50;52.20;;;;;;954227;148;27473;-76
2022/10/07 12:43:35;;;;;;;4.12;1.50;;;23.50;52.00;;;;;;951447;145;27331;-77
2022/10/07 12:46:05;;;;;;;1.77;1.10;;;23.50;51.90;;;;;;937304;148;27408;-77
2022/10/07 12:48:32;;;;;;;3.47;1.37;;;23.50;51.90;;;;;;934771;148;27712;-76
2022/10/07 12:50:58;;;;;;;3.10;1.35;;;23.50;51.90;;;;;;936501;148;27818;-77
2022/10/07 12:53:25;;;;;;;3.15;1.37;;;23.50;51.90;;;;;;938140;148;27357;-77
2022/10/07 12:55:51;;;;;;;1.77;0.93;;;23.40;51.90;;;;;;934621;148;27848;-76
2022/10/07 13:01:36;;;;;;;1.25;0.98;;;23.40;51.80;;;;;;935456;148;27809;-77
2022/10/07 13:04:09;;;;;;;2.52;1.40;;;23.40;51.90;;;;;;936512;148;27312;-77
2022/10/07 13:06:38;;;;;;;3.80;1.20;;;23.30;52.00;;;;;;936007;148;27311;-77
2022/10/07 13:09:14;;;;;;;1.65;1.22;;;23.30;52.00;;;;;;935834;148;27368;-76
2022/10/07 13:11:40;;;;;;;1.27;1.17;;;23.30;52.10;;;;;;936206;148;27336;-77
2022/10/07 13:14:25;;;;;;;1.47;1.02;;;23.20;52.20;;;;;;933441;148;27289;-77
2022/10/07 13:16:54;;;;;;;4.78;1.32;;;23.20;52.40;;;;;;935325;148;27444;-77
2022/10/07 13:19:35;;;;;;;1.82;1.10;;;23.10;52.50;;;;;;935513;148;27454;-78